Time;durP1;ratioP1;P1;durP2;ratioP2;P2;SDS_P1;SDS_P2;PMS_P1;PMS_P2;Temp;Humidity;BMP_temperature;BMP_pressure;BME280_temperature;BME280_humidity;BME280_pressure;Samples;Min_cycle;Max_cycle;Signal;HPM_P1;HPM_P2
2022/10/03 00:01:48;;;;;;;10.98;3.15;;;;;;;10.14;82.82;99467.13;5027937;28;21393;-81
2022/10/03 00:04:58;;;;;;;14.75;3.83;;;;;;;9.93;83.58;99471.13;5048448;28;20042;-82
2022/10/03 00:08:17;;;;;;;17.98;3.83;;;;;;;9.97;83.85;99460.78;5049205;28;20389;-81
2022/10/03 00:11:20;;;;;;;11.48;2.75;;;;;;;9.96;83.87;99470.66;4943512;28;20031;-82
2022/10/03 00:14:17;;;;;;;8.82;3.03;;;;;;;10.11;83.17;99473.72;5049337;28;20017;-81
2022/10/03 00:16:57;;;;;;;10.35;3.05;;;;;;;10.00;83.60;99457.69;5050187;28;20040;-82
2022/10/03 00:19:41;;;;;;;13.30;3.75;;;;;;;9.91;82.99;99433.22;5049749;28;20037;-81
2022/10/03 00:22:17;;;;;;;10.98;3.53;;;;;;;9.95;84.29;99487.69;5043675;28;20029;-81
2022/10/03 00:24:57;;;;;;;13.07;3.38;;;;;;;9.96;84.57;99478.66;5053639;28;20055;-81
2022/10/03 00:27:25;;;;;;;11.82;4.10;;;;;;;9.82;84.77;99471.91;5047738;28;20021;-81
2022/10/03 00:30:18;;;;;;;14.73;3.75;;;;;;;10.09;83.74;99489.09;5048532;28;20110;-82
2022/10/03 00:33:02;;;;;;;11.68;3.90;;;;;;;10.04;84.66;99490.84;5044098;28;20094;-82
2022/10/03 00:35:58;;;;;;;15.65;4.30;;;;;;;9.81;84.92;99472.94;5047097;28;20370;-82
2022/10/03 00:38:29;;;;;;;16.60;3.30;;;;;;;10.01;84.83;99496.63;5049197;28;20025;-82
2022/10/03 00:41:25;;;;;;;18.10;3.35;;;;;;;10.00;84.59;99498.50;5032512;28;20036;-82
2022/10/03 00:44:03;;;;;;;15.63;3.40;;;;;;;10.09;84.85;99501.66;5048659;28;20037;-81
2022/10/03 00:46:54;;;;;;;25.23;4.07;;;;;;;10.08;84.21;99495.50;5048576;28;20040;-81
2022/10/03 00:49:38;;;;;;;17.55;3.80;;;;;;;9.79;85.86;99502.50;5034051;28;20107;-81
2022/10/03 00:52:23;;;;;;;12.23;3.78;;;;;;;9.86;86.16;99506.91;5027803;28;20116;-81
2022/10/03 00:54:53;;;;;;;15.45;3.47;;;;;;;9.87;85.71;99504.03;5054327;28;20060;-82
2022/10/03 00:57:57;;;;;;;17.83;4.80;;;;;;;10.09;85.48;99507.00;5030196;28;20029;-82
2022/10/03 01:00:29;;;;;;;14.82;4.40;;;;;;;9.69;85.97;99488.09;5038694;28;20393;-82
2022/10/03 01:03:22;;;;;;;16.27;4.10;;;;;;;10.11;85.05;99513.72;5045817;28;20033;-82
2022/10/03 01:06:15;;;;;;;12.93;3.80;;;;;;;10.06;85.29;99515.44;5022310;28;20029;-82
2022/10/03 01:08:43;;;;;;;15.50;5.25;;;;;;;10.06;85.54;99510.09;5043498;28;20029;-82
2022/10/03 01:11:15;;;;;;;11.38;3.08;;;;;;;10.20;84.68;99516.91;5033349;28;20484;-81
2022/10/03 01:13:58;;;;;;;9.85;3.40;;;;;;;10.03;85.56;99514.03;5043471;28;20036;-82
2022/10/03 01:16:40;;;;;;;12.23;4.80;;;;;;;10.14;85.70;99523.13;5029957;28;20041;-81
2022/10/03 01:19:25;;;;;;;11.95;3.90;;;;;;;10.34;84.82;99524.44;5041918;28;20071;-82
2022/10/03 01:22:30;;;;;;;20.35;4.88;;;;;;;10.33;84.54;99512.13;5029587;28;20645;-83
2022/10/03 01:25:01;;;;;;;15.23;4.88;;;;;;;10.18;85.23;99516.28;5035673;28;20037;-82
2022/10/03 01:30:21;;;;;;;20.27;4.95;;;;;;;10.01;85.47;99499.28;5047366;28;20082;-82
2022/10/03 01:30:29;;;;;;;20.10;6.50;;;;;;;9.90;86.72;99519.56;5053828;28;20037;-82
2022/10/03 01:33:13;;;;;;;14.73;4.47;;;;;;;10.31;84.54;99524.91;5048886;28;20059;-82
2022/10/03 01:35:57;;;;;;;14.93;4.22;;;;;;;10.18;84.83;99510.94;5052676;28;20035;-82
2022/10/03 01:38:40;;;;;;;12.75;4.40;;;;;;;10.01;84.41;99508.13;5032146;28;20583;-81
2022/10/03 01:41:34;;;;;;;13.25;5.05;;;;;;;10.18;85.14;99527.78;5032623;28;20029;-81
2022/10/03 01:44:39;;;;;;;15.60;5.97;;;;;;;10.18;84.38;99517.09;5048391;28;20487;-81
2022/10/03 01:47:04;;;;;;;13.90;4.25;;;;;;;10.12;85.34;99531.38;5020404;28;20037;-82
2022/10/03 01:49:48;;;;;;;11.18;4.95;;;;;;;10.22;84.32;99526.28;5031758;28;20028;-82
2022/10/03 01:52:40;;;;;;;12.35;4.70;;;;;;;10.14;84.28;99521.28;5044726;28;20040;-82
2022/10/03 01:55:22;;;;;;;17.65;4.85;;;;;;;10.10;85.32;99532.59;5028585;28;20098;-82
2022/10/03 01:57:52;;;;;;;17.75;5.70;;;;;;;10.15;84.98;99533.59;5047211;28;20025;-81
2022/10/03 02:00:44;;;;;;;17.48;5.53;;;;;;;10.04;85.08;99509.50;5036451;28;20052;-82
2022/10/03 02:03:34;;;;;;;14.77;4.90;;;;;;;9.92;86.23;99541.47;5033122;28;20036;-82
2022/10/03 02:06:10;;;;;;;16.92;4.72;;;;;;;10.13;85.14;99551.69;5028621;28;20039;-82
2022/10/03 02:08:53;;;;;;;20.73;5.85;;;;;;;10.06;85.33;99544.78;5043847;28;20465;-82
2022/10/03 02:11:36;;;;;;;18.23;5.78;;;;;;;9.91;86.33;99547.03;5047063;28;20024;-82
2022/10/03 02:14:27;;;;;;;11.90;4.57;;;;;;;10.05;85.40;99543.13;5043546;28;20116;-82
2022/10/03 02:17:06;;;;;;;13.73;5.10;;;;;;;10.31;85.12;99558.78;5023536;28;20401;-82
2022/10/03 02:19:50;;;;;;;9.90;4.93;;;;;;;10.13;85.34;99550.84;5028659;28;20098;-82
2022/10/03 02:22:37;;;;;;;18.45;5.03;;;;;;;10.18;85.10;99557.13;5026766;28;20476;-82
2022/10/03 02:25:24;;;;;;;17.52;5.60;;;;;;;10.33;85.38;99570.06;5033104;28;20032;-81
2022/10/03 02:28:08;;;;;;;20.27;5.53;;;;;;;10.33;84.90;99572.72;5025320;28;20122;-82
2022/10/03 02:30:39;;;;;;;15.70;5.72;;;;;;;10.32;85.54;99571.09;5026275;28;20024;-82
2022/10/03 02:33:31;;;;;;;9.40;4.80;;;;;;;10.35;85.38;99568.75;5024686;28;20480;-82
2022/10/03 02:36:32;;;;;;;13.68;5.38;;;;;;;10.32;85.40;99569.22;5044023;28;20029;-82
2022/10/03 02:39:12;;;;;;;14.07;4.68;;;;;;;10.40;84.50;99552.06;5046550;28;21691;-82
2022/10/03 02:42:03;;;;;;;17.15;5.53;;;;;;;10.30;84.81;99551.81;5044641;28;20117;-82
2022/10/03 02:44:47;;;;;;;22.67;6.03;;;;;;;10.56;84.17;99580.75;5044054;28;20043;-82
2022/10/03 02:47:18;;;;;;;12.25;5.22;;;;;;;10.40;84.99;99587.56;5050038;28;20767;-82
2022/10/03 02:50:17;;;;;;;18.33;5.72;;;;;;;10.57;84.63;99589.59;5028128;28;20036;-81
2022/10/03 02:53:32;;;;;;;18.00;4.93;;;;;;;10.59;84.10;99587.50;5023727;28;20029;-82
2022/10/03 02:56:34;;;;;;;17.55;5.47;;;;;;;10.60;84.48;99592.59;5042408;28;20048;-81
2022/10/03 02:59:35;;;;;;;17.95;5.50;;;;;;;10.53;85.03;99597.22;5044915;28;20316;-82
2022/10/03 03:02:30;;;;;;;16.15;5.75;;;;;;;10.48;85.02;99605.91;4998233;28;20041;-82
2022/10/03 03:05:30;;;;;;;17.73;6.07;;;;;;;10.51;85.19;99600.13;5026021;28;20051;-82
2022/10/03 03:08:02;;;;;;;15.88;5.78;;;;;;;10.54;84.72;99605.03;5040295;28;20040;-82
2022/10/03 03:11:07;;;;;;;15.77;5.72;;;;;;;10.51;84.84;99604.66;5050586;28;20036;-82
2022/10/03 03:13:54;;;;;;;23.10;6.57;;;;;;;10.65;84.66;99605.25;5045461;28;20025;-82
2022/10/03 03:17:18;;;;;;;15.95;7.85;;;;;;;10.24;86.46;99593.56;5043532;28;20030;-82
2022/10/03 03:20:14;;;;;;;12.52;5.38;;;;;;;10.56;84.84;99602.09;4985906;28;20523;-82
2022/10/03 03:22:48;;;;;;;19.63;5.60;;;;;;;10.68;84.85;99605.59;5010450;28;20033;-82
2022/10/03 03:25:35;;;;;;;19.92;6.03;;;;;;;10.72;84.38;99605.97;5031504;28;20028;-82
2022/10/03 03:28:31;;;;;;;15.88;5.97;;;;;;;10.74;84.33;99611.88;5040858;28;20186;-82
2022/10/03 03:31:35;;;;;;;22.33;5.90;;;;;;;10.53;85.66;99615.91;5031655;28;20051;-82
2022/10/03 03:34:21;;;;;;;15.77;5.50;;;;;;;10.70;84.76;99610.72;5013432;28;20042;-82
2022/10/03 03:37:05;;;;;;;12.85;5.32;;;;;;;10.84;84.02;99614.78;5048183;28;20032;-82
2022/10/03 03:39:39;;;;;;;15.68;6.15;;;;;;;10.62;84.97;99616.38;5049466;28;20020;-82
2022/10/03 03:42:11;;;;;;;17.92;5.57;;;;;;;10.88;84.20;99616.75;5031593;28;20029;-82
2022/10/03 03:44:56;;;;;;;16.92;5.93;;;;;;;10.84;83.93;99617.47;5031657;28;21633;-82
2022/10/03 03:48:04;;;;;;;17.50;7.15;;;;;;;10.78;84.70;99624.53;5046646;28;20020;-82
2022/10/03 03:50:53;;;;;;;16.15;5.32;;;;;;;10.61;85.04;99628.94;5029283;28;20105;-82
2022/10/03 03:53:33;;;;;;;13.60;5.70;;;;;;;10.74;84.58;99627.91;5029081;28;20118;-82
2022/10/03 03:56:31;;;;;;;16.13;5.70;;;;;;;10.76;84.18;99631.16;5033377;28;20075;-82
2022/10/03 03:59:34;;;;;;;18.42;6.50;;;;;;;10.80;84.35;99638.47;5022379;28;20041;-81
2022/10/03 04:02:19;;;;;;;13.23;5.78;;;;;;;10.65;84.47;99637.28;5028905;28;20028;-82
2022/10/03 04:04:54;;;;;;;26.08;8.57;;;;;;;10.54;85.38;99631.72;5026129;28;20560;-81
2022/10/03 04:07:41;;;;;;;23.60;6.47;;;;;;;10.65;85.03;99632.78;5042257;28;20036;-81
2022/10/03 04:10:25;;;;;;;24.95;8.48;;;;;;;10.52;85.26;99633.78;5049901;28;20021;-81
2022/10/03 04:13:17;;;;;;;17.67;7.75;;;;;;;10.53;85.77;99624.72;5045731;28;20033;-81
2022/10/03 04:15:48;;;;;;;17.13;5.90;;;;;;;10.63;84.99;99632.19;5028761;28;20401;-81
2022/10/03 04:21:37;;;;;;;20.48;6.53;;;;;;;10.58;84.68;99637.41;5043322;28;20044;-81
2022/10/03 04:24:18;;;;;;;14.32;6.22;;;;;;;10.59;84.73;99633.69;5034121;28;20039;-82
2022/10/03 04:26:58;;;;;;;11.82;6.28;;;;;;;10.53;84.88;99629.25;5028073;28;20389;-81
2022/10/03 04:29:39;;;;;;;20.95;7.30;;;;;;;10.50;84.97;99624.38;5052179;28;20040;-81
2022/10/03 04:32:16;;;;;;;16.92;7.35;;;;;;;10.41;85.82;99631.09;5042991;28;20056;-81
2022/10/03 04:35:04;;;;;;;20.02;7.10;;;;;;;10.43;85.08;99624.50;5032636;28;20029;-82
2022/10/03 04:37:57;;;;;;;16.10;7.00;;;;;;;10.57;85.26;99635.78;5031879;28;20033;-82
2022/10/03 04:40:48;;;;;;;14.85;6.28;;;;;;;10.62;84.93;99627.88;5052395;28;20514;-82
2022/10/03 04:43:35;;;;;;;17.75;6.05;;;;;;;10.60;84.72;99629.97;5002327;28;20041;-82
2022/10/03 04:46:24;;;;;;;25.58;7.10;;;;;;;10.12;85.79;99605.22;5030900;28;20090;-81
2022/10/03 04:48:53;;;;;;;19.20;6.93;;;;;;;10.44;85.18;99634.09;5046086;28;20028;-82
2022/10/03 04:51:42;;;;;;;21.33;7.55;;;;;;;10.28;86.40;99639.28;5032728;28;20079;-81
2022/10/03 04:54:23;;;;;;;17.58;7.97;;;;;;;10.16;86.00;99615.22;5029376;28;20037;-82
2022/10/03 04:56:55;;;;;;;15.18;6.90;;;;;;;10.30;85.25;99610.53;5048647;28;20052;-82
2022/10/03 04:59:42;;;;;;;13.82;5.93;;;;;;;10.38;85.54;99636.88;5030908;28;20039;-81
2022/10/03 05:02:23;;;;;;;16.25;6.93;;;;;;;10.38;85.48;99647.53;5028508;28;20412;-82
2022/10/03 05:05:06;;;;;;;20.58;7.43;;;;;;;10.19;86.27;99628.13;5050222;28;20064;-82
2022/10/03 05:07:41;;;;;;;20.85;6.50;;;;;;;10.25;85.80;99632.53;5045236;28;20017;-82
2022/10/03 05:10:45;;;;;;;14.55;6.70;;;;;;;10.24;85.88;99638.91;5048869;28;20504;-82
2022/10/03 05:13:27;;;;;;;22.20;7.38;;;;;;;10.33;85.71;99637.56;5029026;28;20021;-82
2022/10/03 05:16:17;;;;;;;17.58;6.03;;;;;;;10.25;86.16;99643.22;5049295;28;20115;-82
2022/10/03 05:19:08;;;;;;;31.77;8.65;;;;;;;9.99;87.08;99646.22;5046353;28;20103;-82
2022/10/03 05:21:49;;;;;;;18.20;6.03;;;;;;;10.29;86.44;99638.22;5045634;28;20445;-82
2022/10/03 05:24:26;;;;;;;20.02;7.25;;;;;;;10.34;85.80;99631.19;5047439;28;20031;-82
2022/10/03 05:27:32;;;;;;;20.35;8.07;;;;;;;10.11;85.83;99622.28;5029272;28;20040;-82
2022/10/03 05:30:18;;;;;;;17.05;6.55;;;;;;;10.09;85.78;99627.81;5049404;28;20036;-81
2022/10/03 05:33:13;;;;;;;9.80;5.43;;;;;;;10.10;86.16;99634.78;5028818;28;20032;-82
2022/10/03 05:36:03;;;;;;;15.90;5.78;;;;;;;10.09;85.59;99633.13;5031048;28;20029;-81
2022/10/03 05:38:37;;;;;;;16.50;6.45;;;;;;;10.26;85.32;99660.03;5029129;28;20037;-81
2022/10/03 05:41:10;;;;;;;12.35;5.85;;;;;;;9.89;86.38;99634.44;5045890;28;20492;-82
2022/10/03 05:43:48;;;;;;;18.23;6.35;;;;;;;10.10;86.04;99660.63;5049692;28;20033;-82
2022/10/03 05:46:44;;;;;;;21.52;7.28;;;;;;;9.84;87.23;99664.44;5049131;28;20044;-82
2022/10/03 05:49:22;;;;;;;19.05;7.47;;;;;;;10.11;85.94;99664.97;5027471;28;20025;-82
2022/10/03 05:52:15;;;;;;;15.23;6.22;;;;;;;10.02;85.38;99661.78;5031680;28;20038;-82
2022/10/03 05:54:58;;;;;;;18.85;5.80;;;;;;;10.19;85.90;99680.66;5045123;28;20429;-82
2022/10/03 05:57:48;;;;;;;19.08;5.82;;;;;;;10.06;85.41;99657.59;5030249;28;20528;-82
2022/10/03 06:00:49;;;;;;;13.77;6.40;;;;;;;10.16;85.78;99681.09;5024736;28;20071;-82
2022/10/03 06:03:50;;;;;;;17.00;6.00;;;;;;;10.15;86.18;99679.47;5031980;28;20036;-82
2022/10/03 06:06:43;;;;;;;12.63;5.47;;;;;;;10.00;86.04;99661.19;5016038;28;20110;-82
2022/10/03 06:09:12;;;;;;;15.07;5.32;;;;;;;10.19;86.40;99692.16;5051735;28;20040;-82
2022/10/03 06:11:53;;;;;;;19.15;6.20;;;;;;;10.17;86.48;99688.06;5048373;28;20074;-82
2022/10/03 06:14:27;;;;;;;16.77;5.78;;;;;;;10.23;86.36;99687.97;5045092;28;20031;-82
2022/10/03 06:17:20;;;;;;;15.43;5.68;;;;;;;10.28;85.76;99695.31;5054276;28;20043;-81
2022/10/03 06:20:03;;;;;;;9.93;5.85;;;;;;;10.17;86.47;99694.22;5047933;28;20025;-82
2022/10/03 06:22:32;;;;;;;15.02;6.25;;;;;;;10.13;86.92;99702.91;5031065;28;20054;-83
2022/10/03 06:25:09;;;;;;;12.43;5.05;;;;;;;10.28;86.20;99708.66;5048932;28;20488;-82
2022/10/03 06:27:47;;;;;;;12.57;7.30;;;;;;;9.91;88.31;99718.53;5028389;28;20112;-82
2022/10/03 06:30:40;;;;;;;12.00;6.43;;;;;;;10.36;86.12;99709.16;5032195;28;20037;-82
2022/10/03 06:33:50;;;;;;;11.70;6.35;;;;;;;10.37;86.18;99723.31;5044312;28;20040;-82
2022/10/03 06:36:41;;;;;;;14.70;5.40;;;;;;;10.38;85.82;99701.75;5024328;28;20484;-82
2022/10/03 06:39:28;;;;;;;20.33;6.97;;;;;;;10.51;85.90;99722.91;5021886;28;20028;-82
2022/10/03 06:42:12;;;;;;;12.30;5.50;;;;;;;10.50;86.32;99713.28;5026270;28;20029;-82
2022/10/03 06:45:15;;;;;;;15.30;6.35;;;;;;;10.35;87.52;99718.19;5050891;28;20037;-82
2022/10/03 06:47:50;;;;;;;10.75;4.40;;;;;;;10.53;86.98;99720.81;5042764;28;20045;-81
2022/10/03 06:50:40;;;;;;;14.05;5.03;;;;;;;10.69;85.50;99718.56;5025177;28;20559;-81
2022/10/03 06:53:39;;;;;;;12.07;4.97;;;;;;;10.77;85.41;99715.56;5041260;28;20107;-82
2022/10/03 06:56:39;;;;;;;14.60;5.63;;;;;;;10.75;85.63;99715.78;5024510;28;20037;-82
2022/10/03 06:59:26;;;;;;;12.57;5.90;;;;;;;10.67;86.17;99728.66;5041437;28;20404;-82
2022/10/03 07:02:33;;;;;;;12.57;5.75;;;;;;;10.68;86.52;99724.94;5041049;28;20037;-82
2022/10/03 07:05:50;;;;;;;15.30;5.57;;;;;;;10.64;85.60;99710.44;5029224;28;20040;-82
2022/10/03 07:08:48;;;;;;;12.23;4.67;;;;;;;10.92;85.22;99719.41;5017092;28;20473;-82
2022/10/03 07:11:33;;;;;;;15.90;4.78;;;;;;;10.78;85.22;99696.66;5023891;28;20484;-82
2022/10/03 07:14:27;;;;;;;12.77;7.10;;;;;;;10.80;85.66;99715.09;5038808;28;20040;-82
2022/10/03 07:17:14;;;;;;;18.55;6.13;;;;;;;10.76;86.23;99721.94;5040326;28;20090;-81
2022/10/03 07:19:51;;;;;;;;;;;;;;;10.79;86.57;99724.16;5024736;28;20025;-82
2022/10/03 07:22:53;;;;;;;10.55;5.07;;;;;;;10.68;86.71;99717.72;5038510;28;19920;-82
2022/10/03 07:25:24;;;;;;;10.70;4.55;;;;;;;10.84;86.13;99727.78;5044584;28;20025;-82
2022/10/03 07:28:10;;;;;;;16.67;4.88;;;;;;;10.88;85.56;99723.59;5026411;28;20033;-81
2022/10/03 07:30:47;;;;;;;16.05;5.03;;;;;;;10.97;85.92;99737.44;5026098;28;20044;-81
2022/10/03 07:33:28;;;;;;;12.88;4.57;;;;;;;10.80;86.41;99734.63;5024291;28;20044;-82
2022/10/03 07:39:50;;;;;;;12.88;5.25;;;;;;;10.72;87.31;99747.47;5042343;28;20035;-82
2022/10/03 07:42:33;;;;;;;17.02;5.53;;;;;;;10.87;86.83;99753.22;5040963;28;20323;-82
2022/10/03 07:45:23;;;;;;;15.32;5.57;;;;;;;10.98;86.30;99749.75;5031881;28;20030;-82
2022/10/03 07:48:24;;;;;;;13.55;4.80;;;;;;;10.97;86.61;99756.13;5042434;28;20056;-81
2022/10/03 07:51:04;;;;;;;20.98;5.68;;;;;;;10.93;86.88;99746.94;5019373;28;20048;-80
2022/10/03 07:53:58;;;;;;;12.75;5.25;;;;;;;11.05;86.12;99756.63;5021199;28;20504;-82
2022/10/03 07:56:59;;;;;;;13.23;4.93;;;;;;;11.10;86.23;99758.59;5035451;28;20028;-82
2022/10/03 08:00:01;;;;;;;15.45;4.93;;;;;;;11.07;86.60;99764.41;5039550;28;20032;-81
2022/10/03 08:03:21;;;;;;;17.17;6.80;;;;;;;11.10;85.88;99766.63;5041968;28;20032;-82
2022/10/03 08:06:05;;;;;;;15.98;5.53;;;;;;;11.07;86.61;99762.53;5042431;28;20139;-82
2022/10/03 08:08:52;;;;;;;15.05;5.93;;;;;;;11.05;86.24;99745.13;5041291;28;20032;-82
2022/10/03 08:11:36;;;;;;;12.52;4.85;;;;;;;11.26;85.59;99758.75;5042324;28;20040;-82
2022/10/03 08:14:39;;;;;;;14.95;4.65;;;;;;;11.28;85.61;99763.88;5040883;28;20029;-82
2022/10/03 08:17:23;;;;;;;11.90;5.15;;;;;;;11.31;85.66;99761.53;5028102;28;20379;-83
2022/10/03 08:20:22;;;;;;;14.65;5.15;;;;;;;11.15;85.95;99758.72;5032131;28;20469;-82
2022/10/03 08:22:59;;;;;;;15.05;5.05;;;;;;;11.39;85.76;99778.28;5048526;28;20027;-82
2022/10/03 08:25:36;;;;;;;14.38;4.85;;;;;;;11.26;85.53;99768.63;5051366;28;20045;-82
2022/10/03 08:28:12;;;;;;;10.45;4.47;;;;;;;11.22;86.55;99756.78;5048279;28;21494;-82
2022/10/03 08:30:44;;;;;;;;;;;;;;;11.33;86.22;99777.38;5030318;28;20925;-82
2022/10/03 08:33:46;;;;;;;13.50;4.90;;;;;;;11.31;86.14;99777.56;5046362;28;19940;-81
2022/10/03 08:36:20;;;;;;;12.52;4.57;;;;;;;11.44;85.70;99773.06;5044521;28;20059;-81
2022/10/03 08:39:08;;;;;;;11.40;3.95;;;;;;;11.51;85.09;99773.78;5047843;28;21750;-81
2022/10/03 08:42:07;;;;;;;13.65;5.93;;;;;;;11.50;85.58;99785.50;5050866;28;20110;-81
2022/10/03 08:44:54;;;;;;;9.77;4.45;;;;;;;11.54;85.07;99792.00;5036055;28;20025;-81
2022/10/03 08:47:42;;;;;;;13.13;4.15;;;;;;;11.45;84.99;99788.88;5050041;28;20083;-81
2022/10/03 08:50:37;;;;;;;11.82;5.18;;;;;;;11.41;85.37;99794.91;5045733;28;20033;-80
2022/10/03 08:53:09;;;;;;;13.43;4.68;;;;;;;11.49;84.94;99803.41;5043887;28;20107;-80
2022/10/03 08:55:50;;;;;;;14.77;4.93;;;;;;;11.39;84.94;99779.09;5048498;28;20017;-80
2022/10/03 08:58:31;;;;;;;10.50;4.28;;;;;;;11.57;84.90;99800.41;5055973;28;20090;-80
2022/10/03 09:01:11;;;;;;;10.05;5.68;;;;;;;11.59;85.02;99789.47;5044379;28;20032;-80
2022/10/03 09:04:06;;;;;;;16.58;4.53;;;;;;;11.64;84.56;99789.59;5033018;28;20158;-80
2022/10/03 09:07:05;;;;;;;8.90;4.35;;;;;;;11.65;84.63;99793.88;4958499;28;20070;-81
2022/10/03 09:10:18;;;;;;;14.02;4.68;;;;;;;11.64;84.75;99794.94;5044700;28;20504;-80
2022/10/03 09:13:01;;;;;;;14.07;4.43;;;;;;;11.83;84.29;99799.16;5016317;28;20033;-80
2022/10/03 09:15:45;;;;;;;9.63;4.53;;;;;;;11.77;84.28;99792.88;5030374;28;20405;-80
2022/10/03 09:18:35;;;;;;;9.75;4.65;;;;;;;11.75;85.21;99799.53;5048907;28;20500;-81
2022/10/03 09:21:19;;;;;;;13.60;5.10;;;;;;;11.88;84.63;99805.44;5021998;28;20428;-81
2022/10/03 09:24:05;;;;;;;11.65;5.28;;;;;;;11.86;84.30;99786.13;5044429;28;20040;-80
2022/10/03 09:26:36;;;;;;;8.82;3.97;;;;;;;11.92;84.78;99801.25;5046307;28;20025;-80
2022/10/03 09:29:22;;;;;;;8.88;4.15;;;;;;;12.02;83.71;99795.31;5044421;28;20033;-82
2022/10/03 09:32:06;;;;;;;15.45;4.60;;;;;;;12.09;83.69;99800.53;5044750;28;20033;-81
2022/10/03 09:34:37;;;;;;;11.38;5.13;;;;;;;12.00;84.58;99805.44;5046399;28;20036;-81
2022/10/03 09:37:14;;;;;;;13.05;4.97;;;;;;;12.03;84.70;99804.97;5044933;28;20037;-81
2022/10/03 09:39:58;;;;;;;10.80;4.32;;;;;;;12.16;83.59;99803.91;5026380;28;20459;-81
2022/10/03 09:42:53;;;;;;;14.82;4.63;;;;;;;12.13;84.28;99810.53;5045752;28;20558;-81
2022/10/03 09:45:20;;;;;;;7.13;3.72;;;;;;;12.22;83.30;99806.44;5027674;28;20048;-81
2022/10/03 09:47:59;;;;;;;9.57;4.57;;;;;;;12.12;84.57;99787.50;5031331;28;20481;-81
2022/10/03 09:50:35;;;;;;;14.85;4.25;;;;;;;12.28;83.49;99807.34;5048336;28;20392;-81
2022/10/03 09:53:26;;;;;;;13.18;4.38;;;;;;;12.30;83.58;99800.72;5028676;28;20780;-81
2022/10/03 09:56:00;;;;;;;7.72;3.40;;;;;;;12.36;83.17;99807.00;5046953;28;20152;-81
2022/10/03 09:58:35;;;;;;;8.82;3.67;;;;;;;12.37;83.28;99800.59;5043872;28;20060;-80
2022/10/03 10:01:13;;;;;;;14.38;5.32;;;;;;;12.45;83.59;99797.56;5026756;28;20036;-80
2022/10/03 10:03:44;;;;;;;9.75;3.75;;;;;;;12.59;82.92;99806.94;5049740;28;20041;-80
2022/10/03 10:06:15;;;;;;;14.43;4.95;;;;;;;12.55;83.39;99795.91;5036261;28;20016;-80
2022/10/03 10:08:50;;;;;;;12.60;3.88;;;;;;;12.75;83.16;99803.53;5025274;28;20115;-79
2022/10/03 10:11:33;;;;;;;13.82;3.85;;;;;;;12.80;82.75;99808.94;5026512;28;20552;-79
2022/10/03 10:14:23;;;;;;;15.43;4.13;;;;;;;12.93;82.11;99805.19;5028107;28;20029;-80
2022/10/03 10:16:54;;;;;;;5.00;3.15;;;;;;;12.96;81.31;99813.56;5038661;28;20496;-80
2022/10/03 10:19:40;;;;;;;10.27;4.03;;;;;;;12.71;82.08;99799.69;5031553;28;20470;-80
2022/10/03 10:22:11;;;;;;;8.85;4.07;;;;;;;12.82;82.43;99813.03;5053081;28;20029;-80
2022/10/03 10:24:45;;;;;;;12.35;3.83;;;;;;;12.75;82.24;99814.22;5032142;28;20039;-80
2022/10/03 10:27:29;;;;;;;11.57;3.70;;;;;;;12.87;81.67;99819.53;5034992;28;20029;-79
2022/10/03 10:30:07;;;;;;;10.25;3.35;;;;;;;12.80;82.22;99819.66;5027004;28;20070;-80
2022/10/03 10:33:04;;;;;;;8.43;3.63;;;;;;;12.60;82.72;99789.84;5042902;28;20025;-80
2022/10/03 10:35:53;;;;;;;10.50;3.70;;;;;;;12.55;82.27;99811.97;5016601;28;20025;-79
2022/10/03 10:38:46;;;;;;;15.90;3.78;;;;;;;12.59;82.58;99814.97;5044066;28;20035;-79
2022/10/03 10:41:29;;;;;;;5.38;3.33;;;;;;;12.56;82.18;99802.03;5031527;28;20025;-80
2022/10/03 10:44:32;;;;;;;22.42;5.05;;;;;;;12.60;82.33;99808.59;5049025;28;20033;-79
2022/10/03 10:47:26;;;;;;;10.73;3.55;;;;;;;12.55;82.13;99801.25;5055937;28;20440;-79
2022/10/03 10:50:23;;;;;;;11.93;3.22;;;;;;;12.47;82.40;99795.47;5048447;28;20156;-80
2022/10/03 10:53:26;;;;;;;10.35;3.55;;;;;;;12.59;82.52;99801.59;5028881;28;20300;-79
2022/10/03 10:56:19;;;;;;;11.27;3.35;;;;;;;12.69;82.69;99804.44;5050167;28;20028;-79
2022/10/03 10:59:26;;;;;;;6.65;2.80;;;;;;;12.77;81.47;99804.09;5026471;28;20025;-79
2022/10/03 11:02:13;;;;;;;6.53;3.90;;;;;;;12.74;81.95;99796.53;4948695;28;20523;-79
2022/10/03 11:05:16;;;;;;;11.38;3.65;;;;;;;12.82;82.18;99799.63;5024232;28;20032;-79
2022/10/03 11:08:03;;;;;;;10.52;3.45;;;;;;;13.02;81.34;99809.13;5041868;28;20028;-80
2022/10/03 11:10:47;;;;;;;6.70;2.90;;;;;;;13.00;80.95;99805.84;5044344;28;20516;-80
2022/10/03 11:13:15;;;;;;;13.48;3.50;;;;;;;13.00;80.45;99803.16;5030091;28;20040;-79
2022/10/03 11:16:02;;;;;;;6.35;2.97;;;;;;;13.10;80.06;99798.03;5047352;28;20082;-79
2022/10/03 11:19:12;;;;;;;13.63;3.13;;;;;;;13.24;80.00;99791.28;5048628;28;20061;-79
2022/10/03 11:22:17;;;;;;;12.30;2.63;;;;;;;13.41;79.49;99795.59;5009997;28;20037;-79
2022/10/03 11:25:13;;;;;;;12.30;3.83;;;;;;;13.51;78.84;99782.38;5052210;28;20428;-80
2022/10/03 11:28:06;;;;;;;6.28;2.40;;;;;;;13.58;78.72;99781.38;5026549;28;20029;-80
2022/10/03 11:30:50;;;;;;;8.65;2.80;;;;;;;13.65;78.25;99790.09;5044684;28;20025;-80
2022/10/03 11:33:36;;;;;;;14.10;2.53;;;;;;;13.77;77.30;99783.56;5052217;28;20452;-80
2022/10/03 11:36:30;;;;;;;8.82;2.38;;;;;;;13.84;77.47;99784.22;5043784;28;20037;-79
2022/10/03 11:39:01;;;;;;;8.63;2.42;;;;;;;13.88;76.24;99773.78;5029567;28;20052;-80
2022/10/03 11:41:39;;;;;;;5.45;1.92;;;;;;;14.01;75.76;99770.75;5026350;28;20032;-80
2022/10/03 11:44:14;;;;;;;6.20;2.10;;;;;;;14.16;76.01;99773.63;5046137;28;20052;-79
2022/10/03 11:46:45;;;;;;;8.02;2.17;;;;;;;14.13;74.95;99766.09;5049935;28;20025;-80
2022/10/03 11:49:53;;;;;;;11.65;2.75;;;;;;;14.14;74.88;99762.34;5026579;28;20100;-79
2022/10/03 11:52:51;;;;;;;5.20;1.95;;;;;;;14.38;74.83;99769.13;5050433;28;20043;-80
2022/10/03 11:55:22;;;;;;;9.25;1.98;;;;;;;14.46;74.43;99781.31;5039868;28;20054;-80
2022/10/03 11:58:04;;;;;;;4.45;1.90;;;;;;;14.19;74.81;99749.81;5047731;28;20075;-80
2022/10/03 12:00:37;;;;;;;10.57;2.45;;;;;;;14.04;75.11;99752.25;5042167;28;20396;-80
2022/10/03 12:03:17;;;;;;;4.28;2.35;;;;;;;13.86;74.07;99757.13;5027486;28;20027;-80
2022/10/03 12:08:53;;;;;;;4.95;2.25;;;;;;;13.98;75.08;99769.38;5049051;28;20063;-79
2022/10/03 12:11:34;;;;;;;8.80;2.33;;;;;;;13.93;73.61;99734.44;5046728;28;20063;-80
2022/10/03 12:14:15;;;;;;;4.15;1.90;;;;;;;14.17;74.63;99759.97;5041424;28;20526;-79
2022/10/03 12:17:13;;;;;;;4.35;1.95;;;;;;;14.56;74.86;99760.75;5040703;28;20029;-79
2022/10/03 12:19:54;;;;;;;6.03;1.95;;;;;;;14.73;73.11;99756.09;5052845;28;20024;-79
2022/10/03 12:22:44;;;;;;;10.98;2.22;;;;;;;14.96;72.91;99761.16;5045267;28;20028;-80
2022/10/03 12:25:26;;;;;;;8.07;2.15;;;;;;;14.90;72.77;99766.72;5033563;28;20625;-80
2022/10/03 12:28:00;;;;;;;3.92;1.70;;;;;;;14.76;71.95;99765.53;5030659;28;20524;-80
2022/10/03 12:30:36;;;;;;;5.38;1.88;;;;;;;14.66;72.82;99766.22;5031126;28;20110;-80
2022/10/03 12:33:13;;;;;;;6.25;1.77;;;;;;;14.69;70.63;99767.59;5030733;28;20119;-79
2022/10/03 12:35:42;;;;;;;8.40;1.98;;;;;;;14.73;70.98;99766.84;5030544;28;20049;-80
2022/10/03 12:38:14;;;;;;;5.07;1.75;;;;;;;14.74;71.61;99767.66;5030657;28;20124;-79
2022/10/03 12:40:48;;;;;;;9.48;1.85;;;;;;;14.65;71.19;99751.19;5029270;28;20131;-79
2022/10/03 12:43:26;;;;;;;7.63;2.05;;;;;;;14.80;71.44;99762.09;5042055;28;20036;-80
2022/10/03 12:46:06;;;;;;;5.10;2.38;;;;;;;14.79;71.61;99759.63;5016531;28;20102;-80
2022/10/03 12:48:46;;;;;;;6.03;1.95;;;;;;;14.73;72.07;99761.47;5026571;28;20020;-79
2022/10/03 12:51:30;;;;;;;6.57;2.15;;;;;;;14.63;71.37;99765.91;5045826;28;20021;-79
2022/10/03 12:54:28;;;;;;;3.95;2.08;;;;;;;14.54;72.73;99768.25;5022351;28;20482;-79
2022/10/03 12:57:28;;;;;;;3.55;2.08;;;;;;;14.38;72.17;99747.63;5025216;28;20033;-79
2022/10/03 13:00:08;;;;;;;5.85;2.15;;;;;;;14.23;70.35;99744.72;5028431;28;20489;-79
2022/10/03 13:02:42;;;;;;;4.47;1.50;;;;;;;14.37;70.83;99739.84;5030653;28;20029;-79
2022/10/03 13:05:44;;;;;;;4.63;2.30;;;;;;;14.51;71.66;99751.78;5044719;28;20461;-79
2022/10/03 13:09:02;;;;;;;6.72;1.88;;;;;;;14.67;71.66;99749.03;5040349;28;20029;-79